Time;durP1;ratioP1;P1;durP2;ratioP2;P2;SDS_P1;SDS_P2;PMS_P1;PMS_P2;Temp;Humidity;BMP_temperature;BMP_pressure;BME280_temperature;BME280_humidity;BME280_pressure;Samples;Min_cycle;Max_cycle;Signal;HPM_P1;HPM_P2
2021/06/19 00:02:20;;;;;;;24.88;17.38;;;22.50;99.90;;;;;;4996725;28;20481;-66
2021/06/19 00:04:46;;;;;;;27.42;17.90;;;22.60;99.90;;;;;;4996716;28;20038;-65
2021/06/19 00:07:11;;;;;;;27.45;18.00;;;22.60;99.90;;;;;;4994847;28;20164;-65
2021/06/19 00:09:37;;;;;;;26.75;17.20;;;22.60;99.90;;;;;;4996655;28;20053;-66
2021/06/19 00:12:04;;;;;;;26.25;16.45;;;22.60;99.90;;;;;;4996392;28;20026;-66
2021/06/19 00:14:29;;;;;;;26.38;16.45;;;22.60;99.90;;;;;;5002909;28;20115;-65
2021/06/19 00:16:55;;;;;;;27.73;17.95;;;22.60;99.90;;;;;;4997509;28;20357;-66
2021/06/19 00:19:21;;;;;;;21.67;16.83;;;22.60;99.90;;;;;;4996864;28;20026;-66
2021/06/19 00:21:46;;;;;;;25.83;17.83;;;22.60;99.90;;;;;;4995168;28;20025;-66
2021/06/19 00:24:19;;;;;;;24.02;18.95;;;22.50;99.90;;;;;;5002052;28;20026;-66
2021/06/19 00:26:46;;;;;;;23.33;17.10;;;22.50;99.90;;;;;;5004086;28;20390;-65
2021/06/19 00:29:15;;;;;;;24.77;18.05;;;22.50;99.90;;;;;;4995972;28;20030;-65
2021/06/19 00:31:42;;;;;;;26.30;17.42;;;22.50;99.90;;;;;;5001801;28;20049;-66
2021/06/19 00:34:08;;;;;;;22.73;18.33;;;22.50;99.90;;;;;;4990790;28;20034;-65
2021/06/19 00:36:33;;;;;;;23.45;18.27;;;22.50;99.90;;;;;;4992858;28;20086;-65
2021/06/19 00:38:59;;;;;;;28.45;18.13;;;22.50;99.90;;;;;;4997006;28;20018;-65
2021/06/19 00:41:26;;;;;;;22.65;17.45;;;22.50;99.90;;;;;;4990139;28;20429;-65
2021/06/19 00:43:51;;;;;;;26.27;19.73;;;22.50;99.90;;;;;;4992315;28;20033;-66
2021/06/19 00:46:17;;;;;;;24.63;18.48;;;22.40;99.90;;;;;;4996358;28;20446;-65
2021/06/19 00:48:42;;;;;;;21.00;18.27;;;22.50;99.90;;;;;;5001326;28;20022;-65
2021/06/19 00:51:08;;;;;;;25.67;19.88;;;22.40;99.90;;;;;;4995993;28;20484;-65
2021/06/19 00:53:34;;;;;;;24.10;17.88;;;22.40;99.90;;;;;;4996394;28;20029;-65
2021/06/19 00:56:01;;;;;;;23.20;17.02;;;22.40;99.90;;;;;;4994139;28;20046;-65
2021/06/19 00:58:27;;;;;;;22.10;14.07;;;22.30;99.90;;;;;;4996305;28;20034;-65
2021/06/19 01:00:53;;;;;;;17.10;13.75;;;22.20;99.90;;;;;;4995300;28;20080;-68
2021/06/19 01:03:18;;;;;;;19.67;13.93;;;22.20;99.90;;;;;;4996477;28;20018;-68
2021/06/19 01:05:45;;;;;;;18.30;13.32;;;22.10;99.90;;;;;;4996297;28;20031;-65
2021/06/19 01:08:10;;;;;;;20.48;14.30;;;22.10;99.90;;;;;;4993714;28;20050;-68
2021/06/19 01:10:36;;;;;;;18.95;13.85;;;22.00;99.90;;;;;;4993561;28;20530;-65
2021/06/19 01:13:01;;;;;;;21.33;14.23;;;22.00;99.90;;;;;;4992315;28;20483;-65
2021/06/19 01:15:28;;;;;;;21.52;16.27;;;22.00;99.90;;;;;;4993411;28;20403;-65
2021/06/19 01:17:54;;;;;;;24.90;19.42;;;21.90;99.90;;;;;;4986414;28;20054;-65
2021/06/19 01:20:21;;;;;;;23.38;19.85;;;21.90;99.90;;;;;;4999073;28;20435;-65
2021/06/19 01:22:53;;;;;;;26.45;21.67;;;21.80;99.90;;;;;;4983979;28;20054;-65
2021/06/19 01:25:33;;;;;;;31.85;24.25;;;21.80;99.90;;;;;;4987083;28;20022;-65
2021/06/19 01:28:00;;;;;;;30.10;23.88;;;21.70;99.90;;;;;;4984405;28;20042;-65
2021/06/19 01:30:28;;;;;;;35.83;25.05;;;21.60;99.90;;;;;;4997109;28;20022;-65
2021/06/19 01:32:55;;;;;;;36.72;26.80;;;21.50;99.90;;;;;;4994106;28;20249;-65
2021/06/19 01:35:22;;;;;;;37.45;27.05;;;21.50;99.90;;;;;;4992493;28;20057;-65
2021/06/19 01:37:49;;;;;;;36.90;27.83;;;21.40;99.90;;;;;;4989631;28;20022;-66
2021/06/19 01:40:17;;;;;;;40.15;28.98;;;21.30;99.90;;;;;;4992290;28;20034;-65
2021/06/19 01:42:46;;;;;;;39.20;30.65;;;21.20;99.90;;;;;;4997294;28;20038;-65
2021/06/19 01:45:14;;;;;;;38.17;27.88;;;21.20;99.90;;;;;;4984470;28;20109;-65
2021/06/19 01:47:40;;;;;;;44.30;30.85;;;21.20;99.90;;;;;;4988529;28;20023;-66
2021/06/19 01:50:08;;;;;;;46.30;30.67;;;21.10;99.90;;;;;;4986228;28;20021;-66
2021/06/19 01:52:34;;;;;;;45.50;30.00;;;21.10;99.90;;;;;;4986831;28;20101;-65
2021/06/19 01:54:59;;;;;;;46.55;29.08;;;21.10;99.90;;;;;;4992124;28;20052;-65
2021/06/19 01:57:25;;;;;;;46.42;31.73;;;21.10;99.90;;;;;;4992401;28;20081;-65
2021/06/19 02:00:05;;;;;;;43.70;30.25;;;21.00;99.90;;;;;;4988709;28;20022;-65
2021/06/19 02:02:30;;;;;;;51.33;32.95;;;21.00;99.90;;;;;;4992506;28;20018;-68
2021/06/19 02:04:56;;;;;;;48.50;34.35;;;21.00;99.90;;;;;;4991873;28;20032;-68
2021/06/19 02:07:21;;;;;;;53.95;35.40;;;20.90;99.90;;;;;;4992246;28;20468;-68
2021/06/19 02:09:47;;;;;;;52.95;34.42;;;20.90;99.90;;;;;;4992123;28;20026;-68
2021/06/19 02:12:13;;;;;;;54.70;36.97;;;20.90;99.90;;;;;;4991627;28;20045;-68
2021/06/19 02:14:39;;;;;;;57.47;37.55;;;20.90;99.90;;;;;;4992117;28;20034;-68
2021/06/19 02:17:04;;;;;;;51.90;36.25;;;20.80;99.90;;;;;;4991478;28;20431;-68
2021/06/19 02:19:30;;;;;;;48.22;34.97;;;20.80;99.90;;;;;;4990726;28;20026;-67
2021/06/19 02:21:55;;;;;;;44.03;32.38;;;20.80;99.90;;;;;;4981286;28;20050;-67
2021/06/19 02:24:21;;;;;;;46.20;33.25;;;20.70;99.90;;;;;;4992041;28;20081;-68
2021/06/19 02:26:48;;;;;;;47.22;34.17;;;20.60;99.90;;;;;;4991818;28;20023;-68
2021/06/19 02:29:13;;;;;;;45.85;33.33;;;20.60;99.90;;;;;;4991315;28;20097;-68
2021/06/19 02:31:39;;;;;;;47.00;34.45;;;20.60;99.90;;;;;;4998968;28;20105;-68
2021/06/19 02:34:04;;;;;;;52.75;35.50;;;20.50;99.90;;;;;;4991333;28;20065;-68
2021/06/19 02:36:30;;;;;;;49.88;34.72;;;20.50;99.90;;;;;;4994424;28;20022;-68
2021/06/19 02:38:55;;;;;;;47.03;33.42;;;20.50;99.90;;;;;;4991993;28;20574;-68
2021/06/19 02:41:21;;;;;;;49.55;33.90;;;20.50;99.90;;;;;;4991429;28;20120;-68
2021/06/19 02:43:47;;;;;;;54.83;35.38;;;20.40;99.90;;;;;;4988511;28;20046;-68
2021/06/19 02:46:12;;;;;;;57.03;35.10;;;20.40;99.90;;;;;;4990795;28;20381;-68
2021/06/19 02:48:38;;;;;;;52.17;33.80;;;20.30;99.90;;;;;;4990367;28;20057;-68
2021/06/19 02:51:04;;;;;;;58.13;35.72;;;20.30;99.90;;;;;;4989774;28;20190;-67
2021/06/19 02:53:29;;;;;;;56.67;35.95;;;20.20;99.90;;;;;;4991269;28;20101;-68
2021/06/19 02:55:55;;;;;;;57.58;36.72;;;20.20;99.90;;;;;;4991268;28;20035;-68
2021/06/19 02:58:21;;;;;;;56.60;37.42;;;20.10;99.90;;;;;;4991380;28;20073;-68
2021/06/19 03:00:46;;;;;;;59.25;39.08;;;20.10;99.90;;;;;;4989272;28;20026;-68
2021/06/19 03:03:12;;;;;;;64.93;40.30;;;20.10;99.90;;;;;;4980611;28;20479;-68
2021/06/19 03:05:38;;;;;;;62.75;40.25;;;20.10;99.90;;;;;;4990613;28;20030;-68
2021/06/19 03:08:05;;;;;;;65.60;40.65;;;20.10;99.90;;;;;;4991655;28;20022;-68
2021/06/19 03:10:33;;;;;;;59.25;39.85;;;20.10;99.90;;;;;;4988736;28;20027;-67
2021/06/19 03:12:59;;;;;;;64.05;41.78;;;20.10;99.90;;;;;;4990324;28;20044;-68
2021/06/19 03:15:26;;;;;;;62.05;39.63;;;20.10;99.90;;;;;;4992881;28;20026;-67
2021/06/19 03:17:51;;;;;;;67.22;42.88;;;20.10;99.90;;;;;;4990626;28;20030;-68
2021/06/19 03:20:19;;;;;;;65.60;42.28;;;20.10;99.90;;;;;;4991217;28;20026;-68
2021/06/19 03:22:57;;;;;;;69.70;44.80;;;20.00;99.90;;;;;;4981439;28;20029;-68
2021/06/19 03:25:24;;;;;;;70.53;43.70;;;20.10;99.90;;;;;;4990978;28;20022;-68
2021/06/19 03:27:50;;;;;;;69.72;44.08;;;20.10;99.90;;;;;;4981669;28;20357;-68
2021/06/19 03:30:18;;;;;;;69.65;45.05;;;20.10;99.90;;;;;;4994989;28;20076;-67
2021/06/19 03:32:44;;;;;;;67.95;45.10;;;20.10;99.90;;;;;;4991105;28;20026;-67
2021/06/19 03:35:11;;;;;;;70.50;45.75;;;20.10;99.90;;;;;;4991465;28;20040;-68
2021/06/19 03:37:37;;;;;;;72.35;46.97;;;20.10;99.90;;;;;;4994067;28;20491;-68
2021/06/19 03:40:08;;;;;;;76.65;45.83;;;20.10;99.90;;;;;;4989902;28;20027;-68
2021/06/19 03:42:34;;;;;;;70.53;43.80;;;20.10;99.90;;;;;;4990814;28;20496;-67
2021/06/19 03:45:00;;;;;;;69.35;42.10;;;20.10;99.90;;;;;;4979123;28;20022;-68
2021/06/19 03:47:25;;;;;;;71.35;43.17;;;20.10;99.90;;;;;;4994986;28;20071;-67
2021/06/19 03:49:51;;;;;;;65.10;40.78;;;20.10;99.90;;;;;;4991997;28;20069;-67
2021/06/19 03:52:16;;;;;;;67.72;40.60;;;20.10;99.90;;;;;;4991870;28;20423;-68
2021/06/19 03:54:42;;;;;;;63.90;40.45;;;20.00;99.90;;;;;;4993734;28;20106;-67
2021/06/19 03:57:08;;;;;;;63.65;40.60;;;19.90;99.90;;;;;;4992516;28;20454;-69
2021/06/19 03:59:34;;;;;;;62.15;39.55;;;19.90;99.90;;;;;;4990107;28;20022;-69
2021/06/19 04:02:00;;;;;;;68.20;40.38;;;19.90;99.90;;;;;;4980316;28;20023;-69
2021/06/19 04:04:26;;;;;;;53.33;36.25;;;19.90;99.90;;;;;;4989374;28;20036;-69
2021/06/19 04:06:51;;;;;;;52.03;33.42;;;19.90;99.90;;;;;;4988715;28;20023;-69
2021/06/19 04:09:17;;;;;;;53.88;34.50;;;19.90;99.90;;;;;;4995704;28;20054;-69
2021/06/19 04:11:43;;;;;;;58.42;35.55;;;19.80;99.90;;;;;;4985097;28;20408;-69
2021/06/19 04:14:09;;;;;;;60.47;37.35;;;19.80;99.90;;;;;;4990120;28;20019;-69
2021/06/19 04:16:34;;;;;;;61.33;35.42;;;19.80;99.90;;;;;;4981165;28;20019;-69
2021/06/19 04:19:00;;;;;;;55.30;35.05;;;19.80;99.90;;;;;;4991332;28;20069;-69
2021/06/19 04:21:25;;;;;;;62.85;36.90;;;19.80;99.90;;;;;;4995330;28;20023;-68
2021/06/19 04:23:51;;;;;;;56.88;38.13;;;19.80;99.90;;;;;;4985368;28;20015;-69
2021/06/19 04:26:16;;;;;;;57.50;36.47;;;19.80;99.90;;;;;;4995349;28;20447;-69
2021/06/19 04:28:42;;;;;;;56.63;34.25;;;19.80;99.90;;;;;;4989862;28;20014;-69
2021/06/19 04:31:07;;;;;;;54.03;35.00;;;19.80;99.90;;;;;;4989635;28;20373;-69
2021/06/19 04:33:33;;;;;;;52.30;32.25;;;19.70;99.90;;;;;;4977379;28;20046;-69
2021/06/19 04:35:59;;;;;;;52.95;33.35;;;19.70;99.90;;;;;;4988422;28;20423;-69
2021/06/19 04:38:24;;;;;;;49.80;31.40;;;19.70;99.90;;;;;;4989609;28;20026;-69
2021/06/19 04:41:03;;;;;;;48.85;31.15;;;19.70;99.90;;;;;;4985731;28;20025;-69
2021/06/19 04:43:32;;;;;;;54.92;31.17;;;19.60;99.90;;;;;;4986300;28;20014;-69
2021/06/19 04:45:58;;;;;;;48.55;30.75;;;19.60;99.90;;;;;;4994039;28;20088;-69
2021/06/19 04:48:24;;;;;;;51.63;31.92;;;19.60;99.90;;;;;;4987213;28;20384;-69
2021/06/19 04:50:49;;;;;;;52.25;31.10;;;19.60;99.90;;;;;;4992822;28;20068;-69
2021/06/19 04:53:15;;;;;;;55.20;32.83;;;19.60;99.90;;;;;;4993672;28;20022;-69
2021/06/19 04:55:41;;;;;;;49.58;29.25;;;19.60;99.90;;;;;;4993066;28;20049;-69
2021/06/19 04:58:09;;;;;;;52.47;31.58;;;19.60;99.90;;;;;;4992220;28;20022;-69
2021/06/19 05:00:35;;;;;;;52.47;32.05;;;19.60;99.90;;;;;;4993067;28;20021;-69
2021/06/19 05:03:00;;;;;;;48.67;31.38;;;19.60;99.90;;;;;;4993448;28;20010;-69
2021/06/19 05:05:28;;;;;;;46.70;29.55;;;19.60;99.90;;;;;;4986647;28;20388;-69
2021/06/19 05:07:54;;;;;;;51.42;31.15;;;19.50;99.90;;;;;;4993196;28;20069;-69
2021/06/19 05:10:19;;;;;;;48.65;31.10;;;19.60;99.90;;;;;;4993091;28;20499;-70
2021/06/19 05:12:47;;;;;;;45.83;29.45;;;19.50;99.90;;;;;;4981699;28;20510;-69
2021/06/19 05:15:17;;;;;;;47.42;29.05;;;19.60;99.90;;;;;;4993223;28;20023;-69
2021/06/19 05:17:43;;;;;;;53.45;30.42;;;19.60;99.90;;;;;;4980629;28;20034;-69
2021/06/19 05:20:09;;;;;;;49.70;29.25;;;19.60;99.90;;;;;;4993086;28;20015;-69
2021/06/19 05:22:34;;;;;;;48.25;29.75;;;19.50;99.90;;;;;;4987531;28;20476;-69
2021/06/19 05:25:01;;;;;;;50.33;29.10;;;19.50;99.90;;;;;;4992512;28;20108;-69
2021/06/19 05:27:26;;;;;;;43.97;26.50;;;19.50;99.90;;;;;;4992974;28;20080;-69
2021/06/19 05:29:52;;;;;;;45.25;27.10;;;19.50;99.90;;;;;;4993857;28;20419;-69
2021/06/19 05:32:17;;;;;;;35.78;24.33;;;19.50;99.90;;;;;;4998753;28;20117;-69
2021/06/19 05:34:43;;;;;;;37.75;22.42;;;19.50;99.90;;;;;;4992646;28;20502;-68
2021/06/19 05:37:09;;;;;;;30.17;20.17;;;19.50;99.90;;;;;;4999133;28;20026;-67
2021/06/19 05:39:35;;;;;;;26.25;19.75;;;19.50;99.90;;;;;;4992711;28;20072;-68
2021/06/19 05:42:00;;;;;;;28.60;20.08;;;19.50;99.90;;;;;;4992366;28;20022;-68
2021/06/19 05:44:26;;;;;;;32.08;21.70;;;19.60;99.90;;;;;;4992577;28;20029;-68
2021/06/19 05:46:52;;;;;;;32.17;20.30;;;19.60;99.90;;;;;;4991147;28;20515;-68
2021/06/19 05:49:17;;;;;;;27.67;20.38;;;19.60;99.90;;;;;;4992425;28;20053;-67
2021/06/19 05:51:43;;;;;;;27.35;21.05;;;19.60;99.90;;;;;;4991464;28;20074;-68
2021/06/19 05:54:09;;;;;;;25.60;19.55;;;19.50;99.90;;;;;;4992529;28;20026;-68
2021/06/19 05:56:34;;;;;;;29.50;20.70;;;19.60;99.90;;;;;;4988852;28;20114;-67
2021/06/19 05:59:00;;;;;;;24.73;19.30;;;19.50;99.90;;;;;;4992480;28;20089;-67
2021/06/19 06:01:26;;;;;;;24.35;20.48;;;19.50;99.90;;;;;;4992180;28;20069;-67
2021/06/19 06:03:51;;;;;;;28.15;21.23;;;19.50;99.90;;;;;;4991688;28;20427;-67
2021/06/19 06:06:17;;;;;;;24.92;20.80;;;19.50;99.90;;;;;;4987295;28;20053;-67
2021/06/19 06:08:43;;;;;;;30.58;21.60;;;19.50;99.90;;;;;;4990877;28;20022;-67
2021/06/19 06:11:09;;;;;;;28.67;21.33;;;19.50;99.90;;;;;;4984881;28;20387;-68
2021/06/19 06:13:35;;;;;;;27.48;21.98;;;19.50;99.90;;;;;;4992391;28;20015;-68
2021/06/19 06:16:00;;;;;;;26.10;21.80;;;19.50;99.90;;;;;;4990338;28;20368;-68
2021/06/19 06:18:26;;;;;;;26.38;20.60;;;19.60;99.90;;;;;;4991808;28;20014;-68
2021/06/19 06:20:51;;;;;;;27.02;20.52;;;19.60;99.90;;;;;;4991427;28;20041;-68
2021/06/19 06:23:17;;;;;;;27.33;21.40;;;19.50;99.90;;;;;;4986956;28;20029;-68
2021/06/19 06:25:43;;;;;;;22.92;19.42;;;19.50;99.90;;;;;;4991146;28;20026;-68
2021/06/19 06:28:09;;;;;;;24.60;19.27;;;19.50;99.90;;;;;;4991652;28;20399;-68
2021/06/19 06:30:34;;;;;;;22.88;17.60;;;19.50;99.90;;;;;;4998531;28;20025;-68
2021/06/19 06:33:00;;;;;;;24.25;17.42;;;19.50;99.90;;;;;;4992135;28;20018;-68
2021/06/19 06:35:26;;;;;;;19.60;17.38;;;19.50;99.90;;;;;;4995266;28;20507;-68
2021/06/19 06:37:52;;;;;;;22.05;17.50;;;19.50;99.90;;;;;;4976007;28;20098;-68
2021/06/19 06:40:18;;;;;;;17.42;15.52;;;19.60;99.90;;;;;;4988676;28;20109;-68
2021/06/19 06:42:44;;;;;;;19.27;14.98;;;19.60;99.90;;;;;;4991568;28;20018;-68
2021/06/19 06:45:11;;;;;;;18.50;15.20;;;19.60;99.90;;;;;;4990884;28;20029;-68
2021/06/19 06:47:38;;;;;;;15.95;14.30;;;19.70;99.90;;;;;;4991757;28;20101;-68
2021/06/19 06:50:05;;;;;;;10.73;9.20;;;19.70;99.90;;;;;;4986197;28;20019;-67
2021/06/19 06:52:32;;;;;;;10.07;8.07;;;19.70;99.90;;;;;;4989139;28;20073;-67
2021/06/19 06:54:58;;;;;;;13.93;9.77;;;19.70;99.90;;;;;;4986931;28;20019;-67
2021/06/19 06:57:23;;;;;;;11.27;9.57;;;19.70;99.90;;;;;;4988061;28;20029;-67
2021/06/19 06:59:49;;;;;;;7.38;5.70;;;19.70;99.90;;;;;;4980155;28;20023;-68
2021/06/19 07:02:15;;;;;;;5.25;4.32;;;19.70;99.90;;;;;;4988613;28;20022;-67
2021/06/19 07:04:40;;;;;;;4.03;2.88;;;19.70;99.90;;;;;;4982497;28;20118;-67
2021/06/19 07:07:06;;;;;;;3.10;2.80;;;19.70;99.90;;;;;;4985639;28;20506;-67
2021/06/19 07:09:31;;;;;;;2.45;1.65;;;19.60;99.90;;;;;;4983245;28;20037;-67
2021/06/19 07:11:57;;;;;;;4.22;2.58;;;19.60;99.90;;;;;;4983141;28;20026;-67
2021/06/19 07:14:22;;;;;;;3.00;2.70;;;19.60;99.90;;;;;;4985154;28;20158;-67
2021/06/19 07:16:48;;;;;;;2.58;2.10;;;19.60;99.90;;;;;;4987571;28;20068;-68
2021/06/19 07:19:13;;;;;;;2.55;1.85;;;19.70;99.90;;;;;;4986723;28;20014;-68
2021/06/19 07:21:39;;;;;;;1.77;1.50;;;19.70;99.90;;;;;;4990537;28;20029;-68
2021/06/19 07:24:05;;;;;;;1.98;1.33;;;19.70;99.90;;;;;;4990435;28;20219;-68
2021/06/19 07:26:31;;;;;;;2.30;1.95;;;19.60;99.90;;;;;;4989887;28;20026;-68
2021/06/19 07:28:58;;;;;;;3.67;2.47;;;19.70;99.90;;;;;;4987821;28;20026;-68
2021/06/19 07:31:24;;;;;;;7.95;5.47;;;19.70;99.90;;;;;;4997758;28;20129;-67
2021/06/19 07:33:49;;;;;;;9.50;8.50;;;19.60;99.90;;;;;;4985897;28;20165;-68
2021/06/19 07:36:15;;;;;;;12.65;9.23;;;19.60;99.90;;;;;;4990352;28;20032;-67
2021/06/19 07:38:40;;;;;;;10.15;9.00;;;19.50;99.90;;;;;;4989969;28;20019;-68
2021/06/19 07:41:06;;;;;;;12.52;9.23;;;19.50;99.90;;;;;;4990943;28;20022;-67
2021/06/19 07:43:31;;;;;;;10.65;9.50;;;19.40;99.90;;;;;;4990307;28;20018;-67
2021/06/19 07:45:57;;;;;;;11.38;8.52;;;19.40;99.90;;;;;;4990484;28;20022;-67
2021/06/19 07:48:23;;;;;;;9.40;8.32;;;19.20;99.90;;;;;;4989777;28;20030;-67
2021/06/19 07:50:48;;;;;;;10.43;8.15;;;19.20;99.90;;;;;;4990150;28;20022;-67
2021/06/19 07:53:14;;;;;;;12.20;7.97;;;19.10;99.90;;;;;;4990430;28;20026;-67
2021/06/19 07:55:40;;;;;;;9.70;8.20;;;19.00;99.90;;;;;;4978522;28;20036;-67
2021/06/19 07:58:05;;;;;;;9.60;8.35;;;18.90;99.90;;;;;;4987216;28;20390;-67
2021/06/19 08:00:31;;;;;;;10.57;8.48;;;18.90;99.90;;;;;;4990018;28;20018;-67
2021/06/19 08:02:58;;;;;;;14.05;9.05;;;18.80;99.90;;;;;;4980478;28;20026;-67
2021/06/19 08:05:24;;;;;;;14.57;8.23;;;18.70;99.90;;;;;;4989489;28;20476;-67
2021/06/19 08:07:49;;;;;;;12.00;8.98;;;18.60;99.90;;;;;;4990351;28;20110;-67
2021/06/19 08:10:15;;;;;;;11.75;7.80;;;18.60;99.90;;;;;;4978902;28;20106;-67
2021/06/19 08:12:41;;;;;;;13.23;7.53;;;18.60;99.90;;;;;;4977054;28;20165;-67
2021/06/19 08:15:08;;;;;;;9.90;6.95;;;18.60;99.90;;;;;;4970110;28;20436;-67
2021/06/19 08:17:33;;;;;;;8.68;6.63;;;18.50;99.90;;;;;;4975680;28;20125;-67
2021/06/19 08:19:59;;;;;;;9.93;7.43;;;18.50;99.90;;;;;;4980339;28;20102;-67
2021/06/19 08:22:25;;;;;;;10.15;6.13;;;18.50;99.90;;;;;;4980953;28;20049;-67
2021/06/19 08:24:51;;;;;;;7.28;5.90;;;18.50;99.90;;;;;;4983983;28;20022;-67
2021/06/19 08:27:22;;;;;;;8.77;6.20;;;18.50;99.90;;;;;;4978921;28;20492;-68
2021/06/19 08:29:48;;;;;;;7.15;5.28;;;18.50;99.90;;;;;;4982000;28;20030;-67
2021/06/19 08:32:14;;;;;;;9.00;5.07;;;18.50;99.90;;;;;;4992892;28;20034;-67
2021/06/19 08:34:40;;;;;;;8.23;5.85;;;18.50;99.90;;;;;;4990337;28;20048;-67
2021/06/19 08:37:06;;;;;;;7.38;5.32;;;18.50;99.90;;;;;;4992821;28;20065;-67
2021/06/19 08:39:33;;;;;;;8.27;5.72;;;18.50;99.90;;;;;;4992942;28;20104;-68
2021/06/19 08:41:59;;;;;;;8.05;4.65;;;18.50;99.90;;;;;;4992942;28;20026;-67
2021/06/19 08:44:26;;;;;;;6.65;4.30;;;18.40;99.90;;;;;;4988063;28;20113;-68
2021/06/19 08:46:54;;;;;;;8.68;4.55;;;18.40;99.90;;;;;;4984008;28;20432;-68
2021/06/19 08:49:24;;;;;;;6.03;4.45;;;18.40;99.90;;;;;;4986298;28;20029;-68
2021/06/19 08:51:52;;;;;;;7.88;4.10;;;18.40;99.90;;;;;;4990838;28;20019;-68
2021/06/19 08:54:18;;;;;;;7.20;4.35;;;18.40;99.90;;;;;;4984930;28;20022;-68
2021/06/19 08:56:44;;;;;;;6.88;5.00;;;18.40;99.90;;;;;;4987107;28;20034;-68
2021/06/19 08:59:10;;;;;;;5.55;4.95;;;18.40;99.90;;;;;;4985820;28;20023;-68
2021/06/19 09:01:38;;;;;;;6.65;4.93;;;18.50;99.90;;;;;;4993183;28;20033;-68
2021/06/19 09:04:08;;;;;;;10.75;4.88;;;18.50;99.90;;;;;;4988399;28;20018;-68
2021/06/19 09:06:38;;;;;;;6.28;4.80;;;18.60;99.90;;;;;;4991899;28;20073;-68
2021/06/19 09:09:13;;;;;;;7.30;5.15;;;18.60;99.90;;;;;;4990512;28;20041;-68
2021/06/19 09:11:47;;;;;;;6.80;4.47;;;18.60;99.90;;;;;;4988903;28;20026;-68
2021/06/19 09:14:14;;;;;;;6.40;4.65;;;18.60;99.90;;;;;;4976627;28;20034;-68
2021/06/19 09:16:41;;;;;;;9.50;5.75;;;18.60;99.90;;;;;;4978214;28;20022;-68
2021/06/19 09:19:40;;;;;;;6.70;5.05;;;18.80;99.90;;;;;;4995972;28;20011;-68
2021/06/19 09:22:22;;;;;;;4.82;3.83;;;19.00;99.90;;;;;;4986618;28;20018;-68
2021/06/19 09:24:56;;;;;;;6.78;4.53;;;19.20;99.90;;;;;;4991007;28;20014;-67
2021/06/19 09:27:30;;;;;;;4.32;3.80;;;19.30;99.90;;;;;;4995987;28;20014;-67
2021/06/19 09:30:04;;;;;;;6.68;3.65;;;19.50;99.90;;;;;;4989417;28;20041;-67
2021/06/19 09:32:30;;;;;;;3.45;3.03;;;19.60;99.40;;;;;;4998791;28;20022;-67
2021/06/19 09:35:10;;;;;;;4.22;2.80;;;19.60;99.30;;;;;;4992204;28;20034;-67
2021/06/19 09:37:38;;;;;;;4.90;2.90;;;19.70;99.30;;;;;;4993053;28;20030;-68
2021/06/19 09:40:18;;;;;;;6.60;4.25;;;19.70;99.10;;;;;;4992356;28;20025;-68
2021/06/19 09:42:44;;;;;;;6.57;4.20;;;19.80;98.10;;;;;;4992478;28;20036;-68
2021/06/19 09:45:21;;;;;;;5.88;3.97;;;19.80;98.50;;;;;;4989316;28;20125;-66
2021/06/19 09:47:47;;;;;;;5.57;3.72;;;19.80;98.20;;;;;;4985047;28;20026;-67
2021/06/19 09:50:12;;;;;;;4.55;3.20;;;19.90;98.20;;;;;;4992332;28;20029;-67
2021/06/19 09:52:38;;;;;;;5.00;4.05;;;19.90;97.90;;;;;;4991465;28;20149;-67
2021/06/19 09:55:11;;;;;;;5.20;3.90;;;20.00;97.90;;;;;;4990958;28;20060;-67
2021/06/19 09:57:47;;;;;;;5.10;3.05;;;20.10;98.00;;;;;;4992244;28;20487;-67
2021/06/19 10:00:19;;;;;;;4.95;3.53;;;20.20;97.80;;;;;;4987653;28;20046;-67
2021/06/19 10:02:45;;;;;;;5.72;3.67;;;20.20;97.90;;;;;;4990643;28;20022;-66
2021/06/19 10:05:12;;;;;;;7.45;4.30;;;20.20;97.60;;;;;;4992241;28;20046;-66
2021/06/19 10:07:38;;;;;;;6.25;4.35;;;20.20;97.70;;;;;;4991575;28;20084;-67
2021/06/19 10:10:07;;;;;;;6.90;3.72;;;20.20;97.50;;;;;;4991328;28;20022;-67
2021/06/19 10:12:34;;;;;;;6.22;3.70;;;20.20;97.50;;;;;;4991607;28;20018;-67
2021/06/19 10:15:04;;;;;;;7.32;3.83;;;20.30;97.40;;;;;;4991960;28;20019;-67
2021/06/19 10:17:41;;;;;;;5.53;3.85;;;20.30;97.20;;;;;;4996059;28;20046;-66
2021/06/19 10:20:09;;;;;;;5.88;4.60;;;20.40;97.00;;;;;;4990268;28;20113;-69
2021/06/19 10:22:37;;;;;;;5.50;4.75;;;20.30;97.00;;;;;;4986421;28;20530;-68
2021/06/19 10:25:09;;;;;;;8.32;4.57;;;20.40;97.00;;;;;;4983024;28;20065;-68
2021/06/19 10:27:43;;;;;;;7.93;4.53;;;20.40;97.00;;;;;;4983998;28;20102;-68
2021/06/19 10:30:11;;;;;;;6.78;4.10;;;20.30;96.90;;;;;;4990132;28;20049;-68
2021/06/19 10:32:48;;;;;;;5.65;4.18;;;20.30;96.70;;;;;;4990640;28;20033;-68
2021/06/19 10:35:19;;;;;;;8.60;5.07;;;20.40;96.60;;;;;;4990416;28;20117;-67
2021/06/19 10:37:47;;;;;;;6.93;5.07;;;20.50;96.40;;;;;;4993930;28;20022;-69
2021/06/19 10:40:15;;;;;;;7.28;4.95;;;20.50;96.20;;;;;;4991258;28;20018;-68
2021/06/19 10:42:41;;;;;;;7.85;4.68;;;20.50;96.30;;;;;;4992523;28;20031;-67
2021/06/19 10:45:19;;;;;;;8.60;4.93;;;20.40;96.00;;;;;;4990790;28;20033;-69
2021/06/19 10:48:02;;;;;;;6.43;4.57;;;20.40;95.60;;;;;;4985548;28;20108;-69
2021/06/19 10:50:28;;;;;;;6.75;4.97;;;20.30;95.90;;;;;;4988824;28;20030;-69
2021/06/19 10:53:15;;;;;;;7.10;5.47;;;20.20;96.00;;;;;;4992996;28;20026;-68
2021/06/19 10:55:43;;;;;;;9.05;5.15;;;20.40;96.00;;;;;;4987510;28;20018;-67
2021/06/19 10:58:29;;;;;;;7.38;5.15;;;20.50;95.90;;;;;;4991846;28;20033;-67
2021/06/19 11:01:02;;;;;;;7.15;5.07;;;20.60;95.60;;;;;;4986272;28;20026;-69
2021/06/19 11:03:51;;;;;;;6.15;4.97;;;20.60;95.40;;;;;;4984063;28;20023;-67
2021/06/19 11:06:22;;;;;;;9.02;5.50;;;20.70;95.50;;;;;;4984863;28;20042;-68
2021/06/19 11:09:00;;;;;;;6.18;5.38;;;20.70;95.40;;;;;;4987279;28;20038;-68
2021/06/19 11:11:46;;;;;;;6.43;5.32;;;20.80;95.00;;;;;;4989361;28;20026;-68
2021/06/19 11:14:12;;;;;;;7.10;5.60;;;20.80;94.90;;;;;;4992157;28;20053;-67
2021/06/19 11:16:37;;;;;;;7.05;5.68;;;20.80;95.00;;;;;;4994156;28;20019;-67
2021/06/19 11:19:03;;;;;;;6.68;5.57;;;20.90;94.90;;;;;;4982618;28;20381;-68
2021/06/19 11:21:32;;;;;;;6.53;5.20;;;21.00;95.00;;;;;;4990202;28;20015;-68
2021/06/19 11:24:01;;;;;;;;;;;21.00;94.90;;;;;;4990065;28;20030;-68
2021/06/19 11:27:04;;;;;;;7.25;5.80;;;21.00;95.10;;;;;;4987782;28;19910;-67
2021/06/19 11:29:38;;;;;;;7.70;6.22;;;21.10;94.80;;;;;;4990456;28;20033;-66
2021/06/19 11:32:27;;;;;;;7.32;5.07;;;21.20;94.80;;;;;;4996495;28;20037;-67
2021/06/19 11:35:00;;;;;;;9.55;6.85;;;21.30;94.80;;;;;;4985865;28;20129;-68
2021/06/19 11:37:58;;;;;;;6.65;5.18;;;21.40;94.50;;;;;;4984295;28;20026;-68
2021/06/19 11:40:29;;;;;;;7.07;5.43;;;21.50;94.40;;;;;;4988149;28;20025;-66
2021/06/19 11:42:54;;;;;;;8.20;6.88;;;21.50;94.30;;;;;;4989952;28;20014;-65
2021/06/19 11:45:20;;;;;;;6.80;5.82;;;21.60;94.10;;;;;;4989627;28;20072;-66
2021/06/19 11:47:47;;;;;;;7.15;5.80;;;21.60;94.10;;;;;;4977480;28;20034;-66
2021/06/19 11:50:13;;;;;;;6.50;5.05;;;21.60;94.10;;;;;;4980425;28;20419;-66
2021/06/19 11:52:39;;;;;;;7.13;4.63;;;21.60;93.90;;;;;;4978865;28;20023;-66
2021/06/19 11:55:05;;;;;;;7.18;5.30;;;21.70;94.00;;;;;;4979247;28;20028;-66
2021/06/19 11:57:31;;;;;;;8.43;5.00;;;21.70;93.70;;;;;;4979877;28;20026;-66
2021/06/19 12:00:11;;;;;;;7.85;4.95;;;21.80;94.10;;;;;;4977571;28;20022;-66
2021/06/19 12:02:37;;;;;;;8.05;5.80;;;21.80;94.10;;;;;;4979238;28;20031;-66
2021/06/19 12:05:16;;;;;;;7.95;5.93;;;21.80;94.00;;;;;;4986638;28;20040;-66
2021/06/19 12:07:44;;;;;;;9.48;6.85;;;21.80;93.40;;;;;;4981847;28;20087;-67
2021/06/19 12:10:22;;;;;;;7.68;5.43;;;21.70;93.50;;;;;;4974214;28;20504;-67
2021/06/19 12:13:04;;;;;;;11.82;7.03;;;21.70;93.50;;;;;;4990678;28;20042;-67
2021/06/19 12:15:32;;;;;;;8.15;6.22;;;21.80;93.10;;;;;;4973112;28;20023;-67
2021/06/19 12:17:58;;;;;;;9.15;6.43;;;21.80;93.40;;;;;;5000241;28;20022;-66
2021/06/19 12:20:25;;;;;;;8.80;6.40;;;21.80;93.10;;;;;;4986380;28;20051;-69
2021/06/19 12:22:51;;;;;;;6.82;5.47;;;21.90;93.50;;;;;;4981571;28;20030;-67
2021/06/19 12:25:33;;;;;;;6.28;4.97;;;22.20;93.50;;;;;;4980210;28;20018;-68
2021/06/19 12:28:01;;;;;;;8.18;5.65;;;22.50;93.40;;;;;;5001751;28;20096;-69
2021/06/19 12:30:26;;;;;;;8.32;5.32;;;22.60;92.90;;;;;;4977517;28;20070;-69
2021/06/19 12:32:53;;;;;;;6.55;5.32;;;22.80;92.60;;;;;;4976824;28;20480;-68
2021/06/19 12:35:20;;;;;;;8.63;6.05;;;22.90;92.50;;;;;;4977449;28;20507;-69
2021/06/19 12:37:54;;;;;;;9.07;6.05;;;23.00;92.00;;;;;;4974227;28;20073;-69
2021/06/19 12:40:24;;;;;;;11.35;7.10;;;23.00;91.60;;;;;;4977176;28;20660;-69